Latest Weather Observations for Dubbo

IDN60801

Issued at 5:32 am EST Monday 31 August 2015 (issued every 30 minutes, with the page automatically refreshed every 10 minutes)

About weather observations | Map of weather stations | Latest weather observations for NSW | Other Formats
Station Details ID: 065070 Name: DUBBO AIRPORT AWS Lat: -32.22 Lon: 148.58 Height: 284.0 m
Data from the previous 72 hours. | See also: Recent months at Dubbo
Date/Time
EST
Temp
°C
App
Temp
°C
Dew
Point
Rel
Hum
%
Delta-T
°C
Wind Press
QNH
hPa
Press
MSL
hPa
Rain
since 9 am
mm
Dir
 
Spd
km/h
Gust
km/h
Spd
kts
Gust
kts
31/05:30am 2.5 -0.8 2.5 100 0.0 SW 9 11 5 6 1018.1 1018.3 0.0
31/05:08am 1.8 -1.6 1.8 100 0.0 SW 9 11 5 6 1018.2 1018.4 0.0
31/05:00am 1.6 -1.8 1.6 100 0.0 SW 9 11 5 6 1018.2 1018.4 0.0
31/04:30am 1.3 -1.6 1.3 100 0.0 WNW 6 9 3 5 1018.3 1018.5 0.0
31/04:00am 1.2 -0.6 1.2 100 0.0 CALM 0 0 0 0 1018.3 1018.5 0.0
31/03:30am 2.1 0.1 2.1 100 0.0 W 2 6 1 3 1018.3 1018.5 0.0
31/03:03am 2.4 -0.3 2.4 100 0.0 WNW 6 7 3 4 1018.5 1018.7 0.0
31/03:00am 2.7 0.0 2.7 100 0.0 WNW 6 7 3 4 1018.4 1018.6 0.0
31/02:46am 2.9 0.1 2.9 100 0.0 WNW 7 7 4 4 1018.7 1018.9 0.0
31/02:30am 2.9 0.2 2.9 100 0.0 WNW 6 7 3 4 1018.8 1019.0 0.0
31/02:22am 2.6 -0.1 2.6 100 0.0 WNW 6 7 3 4 1018.9 1019.1 0.0
31/02:19am 2.8 0.1 2.8 100 0.0 WNW 6 7 3 4 1018.9 1019.1 0.0
31/02:00am 2.1 -0.3 2.0 99 0.0 SW 4 7 2 4 1019.1 1019.4 0.0
31/01:58am 2.3 -0.5 2.2 99 0.0 SW 6 7 3 4 1019.1 1019.4 0.0
31/01:30am 3.0 0.4 3.0 100 0.0 SSE 6 9 3 5 1019.4 1019.7 0.0
31/01:29am 2.9 0.2 2.9 100 0.0 SSE 6 9 3 5 1019.4 1019.7 0.0
31/01:03am 2.8 0.5 2.7 99 0.0 SSE 4 6 2 3 1019.5 1019.8 0.0
31/01:00am 3.3 0.7 3.2 99 0.0 SSE 6 6 3 3 1019.5 1019.8 0.0
31/12:30am 3.4 0.6 3.3 99 0.0 S 7 11 4 6 1019.9 1020.1 0.0
31/12:00am 2.7 1.0 1.7 93 0.4 CALM 0 0 0 0 1020.1 1020.3 0.0
 
Date/Time
EST
Temp
°C
App
Temp
°C
Dew
Point
Rel
Hum
%
Delta-T
°C
Wind Press
QNH
hPa
Press
MSL
hPa
Rain
since 9 am
mm
Dir
 
Spd
km/h
Gust
km/h
Spd
kts
Gust
kts
30/11:30pm 4.9 2.5 4.3 96 0.3 SSW 6 7 3 4 1020.2 1020.4 0.0
30/11:00pm 4.7 2.1 4.1 96 0.3 SSW 7 7 4 4 1020.2 1020.4 0.0
30/10:30pm 4.9 2.3 4.2 95 0.3 WSW 7 9 4 5 1020.5 1020.7 0.0
30/10:00pm 6.2 3.9 4.8 91 0.6 SSW 6 7 3 4 1020.5 1020.7 0.0
30/09:30pm 6.2 3.3 4.5 89 0.7 SSW 9 11 5 6 1020.5 1020.7 0.0
30/09:00pm 6.8 4.3 4.8 87 0.9 SSW 7 9 4 5 1020.6 1020.8 0.0
30/08:30pm 8.0 4.5 5.5 84 1.1 SSW 13 20 7 11 1020.4 1020.6 0.0
30/08:00pm 8.8 5.4 6.1 83 1.3 SSW 13 20 7 11 1020.3 1020.5 0.0
30/07:30pm 8.7 4.5 5.8 82 1.3 SW 17 26 9 14 1020.0 1020.2 0.0
30/07:00pm 9.0 4.2 5.7 80 1.5 SW 20 28 11 15 1019.5 1019.8 0.0
30/06:30pm 9.7 5.1 5.7 76 1.9 SW 19 26 10 14 1019.2 1019.5 0.0
30/06:00pm 10.4 5.7 5.2 70 2.4 SW 19 26 10 14 1019.0 1019.3 0.0
30/05:30pm 12.3 7.0 5.2 62 3.3 SW 22 28 12 15 1018.7 1018.9 0.0
30/05:00pm 13.7 8.7 6.3 61 3.6 SW 22 30 12 16 1018.5 1018.7 0.0
30/04:30pm 14.7 10.2 6.3 57 4.1 SW 19 26 10 14 1018.3 1018.5 0.0
30/04:00pm 14.7 10.2 6.3 57 4.1 SW 19 24 10 13 1018.3 1018.5 0.0
30/03:30pm 14.8 10.7 6.4 57 4.1 SW 17 24 9 13 1018.3 1018.5 0.0
30/03:00pm 16.0 13.0 7.5 57 4.3 WSW 13 20 7 11 1018.5 1018.7 0.0
30/02:30pm 15.7 12.2 7.0 56 4.3 SW 15 32 8 17 1018.6 1018.8 0.0
30/02:00pm 14.1 11.2 4.7 53 4.4 SSW 9 15 5 8 1018.8 1019.0 0.0
30/01:30pm 14.8 12.3 4.8 51 4.7 W 7 15 4 8 1019.0 1019.3 0.0
30/01:00pm 14.5 10.6 3.3 47 5.1 SSE 13 20 7 11 1019.4 1019.7 0.0
30/12:30pm 14.0 10.1 3.2 48 4.9 SW 13 22 7 12 1020.0 1020.2 0.0
30/12:00pm 13.6 10.3 4.7 55 4.2 S 11 17 6 9 1020.5 1020.7 0.0
30/11:30am 13.0 9.3 4.7 57 3.9 SSW 13 19 7 10 1021.0 1021.2 0.0
30/11:00am 11.9 9.0 4.9 62 3.2 SSW 9 15 5 8 1021.5 1021.7 0.0
30/10:30am 11.3 8.2 5.4 67 2.8 S 11 15 6 8 1021.8 1022.0 0.0
30/10:00am 10.0 6.8 5.0 71 2.3 SSW 11 17 6 9 1021.9 1022.1 0.0
30/09:30am 8.9 5.1 4.1 72 2.1 SSE 13 19 7 10 1022.1 1022.4 0.0
30/09:00am 8.2 4.9 4.6 78 1.6 S 11 17 6 9 1022.1 1022.4 0.0
30/08:30am 6.2 3.5 3.5 83 1.2 ESE 7 13 4 7 1022.0 1022.3 0.0
30/08:00am 5.5 3.1 4.2 91 0.6 NE 6 7 3 4 1021.9 1022.1 0.0
30/07:30am 3.1 1.6 3.1 100 0.0 CALM 0 0 0 0 1021.6 1021.8 0.0
30/07:00am 0.4 -1.5 0.3 99 0.0 CALM 0 0 0 0 1021.4 1021.6 0.0
30/06:30am 0.3 -1.7 0.0 98 0.1 CALM 0 0 0 0 1021.2 1021.4 0.0
30/06:00am 0.3 -2.5 -0.1 97 0.1 SE 4 9 2 5 1021.1 1021.3 0.0
30/05:30am 0.5 -3.2 -0.2 95 0.3 SE 9 11 5 6 1021.0 1021.2 0.0
30/05:00am 1.3 -2.0 0.1 92 0.4 SSE 7 11 4 6 1021.1 1021.3 0.0
30/04:30am 2.9 -1.0 1.4 90 0.6 SSW 11 11 6 6 1021.1 1021.3 0.0
30/04:00am 2.9 -1.4 1.3 89 0.6 SSW 13 13 7 7 1021.2 1021.4 0.0
30/03:30am 2.7 -1.2 0.9 88 0.7 SSW 11 13 6 7 1021.4 1021.6 0.0
30/03:00am 3.5 -0.8 1.2 85 0.9 SSW 13 15 7 8 1021.5 1021.7 0.0
30/02:30am 4.2 -0.4 1.4 82 1.1 S 15 17 8 9 1021.8 1022.0 0.0
30/02:00am 4.8 0.3 2.0 82 1.1 S 15 17 8 9 1022.1 1022.4 0.0
30/01:30am 4.5 0.3 1.7 82 1.1 S 13 15 7 8 1022.4 1022.7 0.0
30/01:00am 5.1 0.6 1.9 80 1.3 S 15 19 8 10 1022.8 1023.1 0.0
30/12:30am 5.6 1.1 2.1 78 1.4 SSW 15 19 8 10 1023.1 1023.4 0.0
30/12:00am 6.2 1.7 2.3 76 1.6 SSW 15 20 8 11 1023.2 1023.5 0.0
 
Date/Time
EST
Temp
°C
App
Temp
°C
Dew
Point
Rel
Hum
%
Delta-T
°C
Wind Press
QNH
hPa
Press
MSL
hPa
Rain
since 9 am
mm
Dir
 
Spd
km/h
Gust
km/h
Spd
kts
Gust
kts
29/11:30pm 7.0 2.1 2.3 72 2.0 SSW 17 20 9 11 1023.4 1023.6 0.0
29/11:00pm 7.5 3.5 2.6 71 2.1 SSW 13 17 7 9 1023.6 1023.8 0.0
29/10:30pm 9.0 4.8 3.6 69 2.4 SSW 15 19 8 10 1023.6 1023.8 0.0
29/10:00pm 9.9 5.8 4.5 69 2.4 SSW 15 20 8 11 1023.5 1023.7 0.0
29/09:30pm 10.0 6.4 4.8 70 2.4 SSW 13 17 7 9 1023.6 1023.8 0.0
29/09:00pm 9.9 6.3 4.9 71 2.3 SSW 13 17 7 9 1023.4 1023.6 0.0
29/08:30pm 10.7 6.3 4.8 67 2.7 SW 17 22 9 12 1023.1 1023.4 0.0
29/08:00pm 10.6 7.5 5.4 70 2.4 SW 11 17 6 9 1022.9 1023.2 0.0
29/07:30pm 10.3 7.1 5.1 70 2.4 SW 11 13 6 7 1022.8 1023.1 0.0
29/07:00pm 10.4 7.1 4.8 68 2.6 SW 11 13 6 7 1022.4 1022.7 0.0
29/06:30pm 10.5 6.8 4.2 65 2.8 SW 13 15 7 8 1022.1 1022.4 0.0
29/06:00pm 11.6 7.1 4.3 61 3.3 SSW 17 22 9 12 1021.8 1022.0 0.0
29/05:30pm 11.6 7.1 4.1 60 3.4 SW 17 22 9 12 1021.7 1021.9 0.0
29/05:00pm 12.0 6.8 3.8 57 3.7 SW 20 24 11 13 1021.4 1021.6 0.0
29/04:30pm 14.2 9.2 3.7 49 4.8 SW 19 35 10 19 1021.3 1021.5 0.0
29/04:00pm 14.2 9.0 3.7 49 4.8 SW 20 28 11 15 1021.4 1021.6 0.0
29/03:30pm 13.5 8.9 3.8 52 4.5 SW 17 28 9 15 1021.5 1021.7 0.0
29/03:00pm 13.4 8.9 4.3 54 4.2 SW 17 24 9 13 1021.7 1021.9 0.0
29/02:30pm 13.8 9.1 5.2 56 4.1 SW 19 26 10 14 1022.0 1022.3 0.0
29/02:00pm 13.9 9.1 4.5 53 4.4 SW 19 26 10 14 1022.3 1022.6 0.0
29/01:30pm 13.9 9.2 5.0 55 4.2 SW 19 26 10 14 1022.6 1022.9 0.0
29/01:00pm 15.8 11.8 6.5 54 4.6 WSW 17 26 9 14 1023.0 1023.3 0.0
29/12:30pm 14.5 10.0 6.1 57 4.1 WSW 19 33 10 18 1023.6 1023.8 0.0
29/12:00pm 14.9 10.3 8.2 64 3.4 W 22 33 12 18 1024.0 1024.2 0.0
29/11:30am 13.6 9.2 6.7 63 3.4 W 19 28 10 15 1024.3 1024.5 0.0
29/11:00am 12.5 9.8 7.2 70 2.6 WSW 11 19 6 10 1024.6 1024.8 0.0
29/10:30am 12.9 10.8 8.4 74 2.3 NW 9 13 5 7 1024.7 1024.9 0.0
29/10:00am 11.4 10.0 8.8 84 1.3 NNW 6 9 3 5 1025.0 1025.3 0.0
29/09:30am 10.2 9.2 10.2 100 0.0 E 6 9 3 5 1025.2 1025.5 0.0
29/09:28am 9.6 8.4 9.6 100 0.0 E 6 9 3 5 1025.2 1025.5 0.0
29/09:20am 8.6 7.1 8.6 100 0.0 NE 6 9 3 5 1025.1 1025.4 0.0
29/09:00am 6.9 5.0 6.9 100 0.0 NE 6 9 3 5 1025.3 1025.6 0.0
29/08:30am 6.5 4.6 6.5 100 0.0 ESE 6 7 3 4 1025.1 1025.4 0.0
29/08:00am 4.5 2.1 4.5 100 0.0 ENE 6 7 3 4 1024.9 1025.1 0.0
29/07:38am 3.8 1.3 3.8 100 0.0 E 6 7 3 4 1024.6 1024.8 0.0
29/07:30am 3.5 1.7 3.5 100 0.0 E 2 7 1 4 1024.5 1024.7 0.0
29/07:27am 3.2 1.4 3.2 100 0.0 E 2 7 1 4 1024.4 1024.6 0.0
29/07:00am 2.0 -0.8 2.0 100 0.0 E 6 7 3 4 1024.3 1024.5 0.0
29/06:30am 1.5 -1.4 1.5 100 0.0 ESE 6 7 3 4 1024.1 1024.3 0.0
29/06:00am 2.1 -0.7 2.1 100 0.0 NE 6 7 3 4 1024.0 1024.2 0.0
29/05:30am 2.0 -1.0 2.0 100 0.0 NE 7 9 4 5 1024.0 1024.2 0.0
29/05:04am 2.8 -0.1 2.8 100 0.0 NNE 7 9 4 5 1023.8 1024.0 0.0
29/05:00am 3.0 0.2 3.0 100 0.0 NNE 7 9 4 5 1023.8 1024.0 0.0
29/04:30am 3.8 2.4 3.8 100 0.0 CALM 0 0 0 0 1023.6 1023.8 0.0
29/04:00am 4.7 3.5 4.7 100 0.0 CALM 0 0 0 0 1023.5 1023.7 0.0
29/03:30am 4.0 2.7 4.0 100 0.0 CALM 0 0 0 0 1023.6 1023.8 0.0
29/03:00am 5.3 4.2 5.2 99 0.0 CALM 0 0 0 0 1023.6 1023.8 0.0
29/02:34am 5.9 4.1 5.6 98 0.1 ENE 4 11 2 6 1023.7 1023.9 0.0
29/02:30am 5.8 4.7 5.2 96 0.3 CALM 0 0 0 0 1023.7 1023.9 0.0
29/02:00am 7.4 5.6 7.3 99 0.0 SW 6 7 3 4 1024.0 1024.2 0.0
29/01:30am 7.3 6.7 7.3 100 0.0 CALM 0 0 0 0 1024.2 1024.4 0.0
29/01:00am 7.5 6.9 7.5 100 0.0 CALM 0 0 0 0 1024.4 1024.6 0.0
29/12:30am 7.1 6.4 7.1 100 0.0 CALM 0 0 0 0 1024.5 1024.7 0.0
29/12:00am 7.0 5.2 7.0 100 0.0 E 6 9 3 5 1024.5 1024.7 0.0
 
Date/Time
EST
Temp
°C
App
Temp
°C
Dew
Point
Rel
Hum
%
Delta-T
°C
Wind Press
QNH
hPa
Press
MSL
hPa
Rain
since 9 am
mm
Dir
 
Spd
km/h
Gust
km/h
Spd
kts
Gust
kts
28/11:30pm 6.7 5.2 6.7 100 0.0 SSW 4 9 2 5 1024.7 1024.9 0.0
28/11:00pm 6.4 5.6 6.4 100 0.0 CALM 0 0 0 0 1024.8 1025.0 0.0
28/10:30pm 5.7 4.6 5.3 97 0.2 CALM 0 0 0 0 1024.9 1025.1 0.0
28/10:00pm 6.2 4.0 5.3 94 0.4 WSW 6 9 3 5 1024.9 1025.1 0.0
28/09:30pm 6.9 4.6 5.5 91 0.6 SSW 7 9 4 5 1024.8 1025.0 0.0
28/09:00pm 7.6 5.0 6.2 91 0.6 S 9 11 5 6 1024.7 1024.9 0.0
28/08:30pm 8.3 5.4 6.4 88 0.9 S 11 13 6 7 1024.6 1024.8 0.0
28/08:00pm 8.6 5.4 6.7 88 0.9 S 13 15 7 8 1024.3 1024.5 0.0
28/07:30pm 9.1 5.0 6.4 83 1.3 SSE 17 20 9 11 1024.1 1024.3 0.0
28/07:00pm 10.5 6.7 7.6 82 1.4 SSE 17 20 9 11 1024.0 1024.2 0.0
28/06:30pm 10.1 7.5 7.7 85 1.2 S 11 15 6 8 1023.9 1024.1 0.0
28/06:00pm 10.4 7.2 6.7 78 1.8 S 13 19 7 10 1023.7 1023.9 0.0
28/05:30pm 11.6 8.3 6.5 71 2.4 S 13 17 7 9 1023.4 1023.6 0.0
28/05:00pm 12.7 9.5 6.7 67 2.9 SSW 13 19 7 10 1023.1 1023.4 0.0
28/04:30pm 13.4 9.6 7.4 67 3.0 S 17 22 9 12 1022.9 1023.2 0.0
28/04:00pm 13.3 8.4 6.9 65 3.1 SW 22 30 12 16 1022.7 1023.0 0.0
28/03:30pm 13.7 9.5 7.5 66 3.1 SSW 19 30 10 16 1022.7 1023.0 0.0
28/03:00pm 13.6 10.1 7.4 66 3.1 SW 15 20 8 11 1022.7 1023.0 0.0
28/02:30pm 13.4 9.7 7.8 69 2.8 SW 17 22 9 12 1022.7 1023.0 0.0
28/02:00pm 13.4 9.6 7.6 68 2.9 WSW 17 22 9 12 1022.6 1022.9 0.0
28/01:30pm 12.8 9.0 7.5 70 2.6 WSW 17 24 9 13 1023.0 1023.3 0.0
28/01:00pm 12.8 9.3 7.3 69 2.7 WSW 15 22 8 12 1023.4 1023.6 0.0
28/12:30pm 13.2 9.1 7.9 70 2.7 W 19 24 10 13 1023.7 1023.9 0.0
28/12:00pm 12.8 7.5 6.6 66 3.0 W 24 33 13 18 1024.0 1024.2 0.0
28/11:30am 14.0 9.2 7.5 65 3.2 W 22 32 12 17 1024.3 1024.5 0.0
28/11:00am 13.7 9.4 7.7 67 3.0 WSW 20 26 11 14 1024.4 1024.6 0.0
28/10:30am 12.6 9.2 7.7 72 2.4 WSW 15 22 8 12 1024.5 1024.7 0.0
28/10:00am 11.7 8.9 8.4 80 1.6 WSW 13 20 7 11 1024.6 1024.8 0.0
28/09:30am 10.4 6.7 8.0 85 1.2 WSW 17 22 9 12 1024.6 1024.8 0.0
28/09:00am 9.4 5.7 8.0 91 0.7 W 17 24 9 13 1024.6 1024.8 0.2
28/08:30am 7.7 4.7 7.7 100 0.0 NW 13 15 7 8 1024.4 1024.6 0.2
28/08:00am 6.6 4.1 6.6 100 0.0 NW 9 11 5 6 1024.1 1024.3 0.2
28/07:30am 5.4 2.3 5.4 100 0.0 NW 11 15 6 8 1023.9 1024.1 0.2
28/07:00am 4.1 1.1 4.1 100 0.0 NW 9 11 5 6 1023.2 1023.5 0.2
28/06:45am 3.5 0.4 3.5 100 0.0 NW 9 11 5 6 1023.2 1023.5 0.2
28/06:30am 3.1 0.3 3.1 100 0.0 NW 7 9 4 5 1023.0 1023.3 0.2
28/06:00am 3.3 0.1 3.3 100 0.0 NW 9 9 5 5 1022.6 1022.9 0.2
28/05:58am 3.3 0.1 3.3 100 0.0 NW 9 9 5 5 1022.6 1022.9 0.2

Other Formats:

Comma delimited format used in spreadsheet applications
http://www.bom.gov.au/fwo/IDN60801/IDN60801.95719.axf

JavaScript Object Notation format (JSON) in row-major order
http://www.bom.gov.au/fwo/IDN60801/IDN60801.95719.json